createdAt,value
2019-05-11T00:00:10.014Z,12.16
2019-05-11T00:02:39.433Z,12.16
2019-05-11T00:05:09.103Z,12.09
2019-05-11T00:07:38.515Z,12.07
2019-05-11T00:10:08.360Z,12.11
2019-05-11T00:12:37.758Z,12.20
2019-05-11T00:15:08.309Z,12.20
2019-05-11T00:17:37.718Z,12.17
2019-05-11T00:20:09.010Z,12.17
2019-05-11T00:22:38.393Z,12.18
2019-05-11T00:25:08.650Z,12.20
2019-05-11T00:27:38.111Z,12.19
2019-05-11T00:30:08.120Z,12.18
2019-05-11T00:32:37.630Z,12.25
2019-05-11T00:35:07.730Z,12.18
2019-05-11T00:37:37.158Z,12.20
2019-05-11T00:40:14.375Z,12.21
2019-05-11T00:42:37.956Z,12.09
2019-05-11T00:45:07.814Z,12.10
2019-05-11T00:47:37.207Z,12.11
2019-05-11T00:50:08.359Z,12.10
2019-05-11T00:52:37.862Z,12.08
2019-05-11T00:55:07.600Z,12.36
2019-05-11T00:57:37.022Z,12.41
2019-05-11T01:00:07.977Z,12.24
2019-05-11T01:02:37.379Z,12.28
2019-05-11T01:05:08.642Z,12.19
2019-05-11T01:07:38.039Z,12.20
2019-05-11T01:10:21.736Z,12.53
2019-05-11T01:12:39.222Z,12.50
2019-05-11T01:15:09.161Z,12.28
2019-05-11T01:17:38.580Z,12.19
2019-05-11T01:20:08.408Z,12.17
2019-05-11T01:22:37.832Z,12.17
2019-05-11T01:25:07.569Z,12.16
2019-05-11T01:27:37.013Z,12.14
2019-05-11T01:30:07.557Z,12.13
2019-05-11T01:32:37.005Z,12.09
2019-05-11T01:35:08.398Z,12.14
2019-05-11T01:37:37.809Z,12.17
2019-05-11T01:40:07.854Z,12.14
2019-05-11T01:42:37.257Z,12.18
2019-05-11T01:45:07.391Z,12.12
2019-05-11T01:47:36.805Z,12.19
2019-05-11T01:50:06.695Z,12.18
2019-05-11T01:52:36.111Z,12.12
2019-05-11T01:55:05.580Z,12.14
2019-05-11T01:57:35.009Z,12.20
2019-05-11T02:00:07.450Z,12.25
2019-05-11T02:02:36.862Z,12.30
2019-05-11T02:05:25.543Z,12.27
2019-05-11T02:07:55.022Z,12.28
2019-05-11T02:10:24.653Z,12.16
2019-05-11T02:12:54.309Z,12.18
2019-05-11T02:15:23.878Z,12.19
2019-05-11T02:17:53.352Z,12.11
2019-05-11T02:20:22.752Z,12.16
2019-05-11T02:22:52.176Z,12.10
2019-05-11T02:25:21.542Z,12.12
2019-05-11T02:27:50.966Z,12.16
2019-05-11T02:30:20.496Z,12.16
2019-05-11T02:32:49.917Z,12.21
2019-05-11T02:35:19.312Z,12.23
2019-05-11T02:37:48.767Z,12.32
2019-05-11T02:40:18.702Z,12.32
2019-05-11T02:42:48.113Z,12.33
2019-05-11T02:45:20.556Z,12.39
2019-05-11T02:47:49.972Z,12.35
2019-05-11T02:50:19.361Z,12.74
2019-05-11T02:52:49.013Z,12.63
2019-05-11T02:55:18.399Z,12.71
2019-05-11T02:57:47.815Z,12.69
2019-05-11T03:00:20.256Z,12.70
2019-05-11T03:02:49.649Z,12.69
2019-05-11T03:05:20.637Z,12.76
2019-05-11T03:07:50.061Z,12.84
2019-05-11T03:10:19.454Z,12.80
2019-05-11T03:12:48.874Z,12.82
2019-05-11T03:15:18.258Z,12.89
2019-05-11T03:17:47.692Z,12.88
2019-05-11T03:20:17.104Z,12.83
2019-05-11T03:22:46.491Z,12.81
2019-05-11T03:25:15.908Z,12.83
2019-05-11T03:27:45.290Z,12.93
2019-05-11T03:30:15.054Z,12.98
2019-05-11T03:32:44.459Z,12.99
2019-05-11T03:35:14.142Z,13.04
2019-05-11T03:37:43.518Z,13.16
2019-05-11T03:40:14.073Z,13.15
2019-05-11T03:42:43.463Z,13.26
2019-05-11T03:45:13.711Z,13.33
2019-05-11T03:47:43.119Z,13.47
2019-05-11T03:50:13.053Z,13.51
2019-05-11T03:52:42.445Z,13.38
2019-05-11T03:55:12.301Z,13.47
2019-05-11T03:57:41.710Z,13.40
2019-05-11T04:00:11.666Z,13.29
2019-05-11T04:02:41.060Z,13.53
2019-05-11T04:05:10.565Z,13.63
2019-05-11T04:07:39.944Z,13.41
2019-05-11T04:10:10.493Z,13.43
2019-05-11T04:12:39.881Z,13.39
2019-05-11T04:15:10.448Z,13.54
2019-05-11T04:17:39.844Z,13.62
2019-05-11T04:20:09.676Z,13.60
2019-05-11T04:22:39.123Z,13.53
2019-05-11T04:25:08.673Z,13.50
2019-05-11T04:27:38.110Z,13.74
2019-05-11T04:30:08.249Z,13.60
2019-05-11T04:32:37.644Z,13.63
2019-05-11T04:35:07.223Z,13.65
2019-05-11T04:37:36.650Z,13.74
2019-05-11T04:40:06.751Z,13.72
2019-05-11T04:42:53.518Z,13.82
2019-05-11T04:45:08.707Z,13.85
2019-05-11T04:47:38.111Z,13.76
2019-05-11T04:50:10.441Z,13.66
2019-05-11T04:52:39.827Z,13.67
2019-05-11T04:55:09.315Z,13.73
2019-05-11T04:57:38.727Z,13.81
2019-05-11T05:00:08.882Z,13.75
2019-05-11T05:02:38.279Z,13.74
2019-05-11T05:05:08.180Z,13.69
2019-05-11T05:07:48.152Z,13.77
2019-05-11T05:10:08.690Z,13.88
2019-05-11T05:12:38.084Z,13.91
2019-05-11T05:15:07.571Z,13.93
2019-05-11T05:17:36.961Z,13.95
2019-05-11T05:20:08.314Z,14.00
2019-05-11T05:22:37.764Z,14.06
2019-05-11T05:25:08.049Z,14.17
2019-05-11T05:27:37.447Z,14.24
2019-05-11T05:30:07.591Z,14.23
2019-05-11T05:32:37.134Z,14.23
2019-05-11T05:35:06.976Z,14.21
2019-05-11T05:37:36.537Z,14.14
2019-05-11T05:40:06.185Z,14.15
2019-05-11T05:42:35.578Z,14.18
2019-05-11T05:45:06.937Z,14.17
2019-05-11T05:47:36.331Z,14.16
2019-05-11T05:50:07.440Z,14.20
2019-05-11T05:52:36.970Z,14.18
2019-05-11T05:55:06.960Z,14.15
2019-05-11T05:57:36.341Z,14.13
2019-05-11T06:00:06.173Z,14.12
2019-05-11T06:02:35.870Z,14.16
2019-05-11T06:05:07.243Z,14.16
2019-05-11T06:07:36.665Z,14.10
2019-05-11T06:10:09.215Z,14.07
2019-05-11T06:12:38.612Z,14.17
2019-05-11T06:15:08.660Z,14.25
2019-05-11T06:17:38.061Z,14.29
2019-05-11T06:20:08.548Z,14.29
2019-05-11T06:22:38.331Z,14.24
2019-05-11T06:25:08.213Z,14.22
2019-05-11T06:27:37.687Z,14.23
2019-05-11T06:30:08.033Z,14.13
2019-05-11T06:32:37.450Z,14.26
2019-05-11T06:35:07.689Z,14.37
2019-05-11T06:37:37.124Z,14.26
2019-05-11T06:40:07.651Z,14.26
2019-05-11T06:42:37.077Z,14.42
2019-05-11T06:45:07.118Z,14.38
2019-05-11T06:47:36.548Z,14.44
2019-05-11T06:50:06.444Z,14.46
2019-05-11T06:52:35.930Z,14.49
2019-05-11T06:55:05.580Z,14.55
2019-05-11T06:57:34.990Z,14.56
2019-05-11T07:00:05.531Z,14.66
2019-05-11T07:02:35.903Z,14.72
2019-05-11T07:05:08.035Z,14.68
2019-05-11T07:07:46.932Z,14.50
2019-05-11T07:10:09.487Z,14.03
2019-05-11T07:12:38.906Z,13.75
2019-05-11T07:15:09.325Z,13.62
2019-05-11T07:17:38.748Z,13.36
2019-05-11T07:20:08.488Z,13.16
2019-05-11T07:22:37.908Z,13.00
2019-05-11T07:25:08.239Z,12.78
2019-05-11T07:27:37.656Z,12.71
2019-05-11T07:30:07.586Z,12.64
2019-05-11T07:32:38.081Z,12.62
2019-05-11T07:35:08.560Z,12.57
2019-05-11T07:37:38.602Z,12.64
2019-05-11T07:40:08.932Z,12.64
2019-05-11T07:42:38.403Z,12.50
2019-05-11T07:45:09.096Z,12.52
2019-05-11T07:47:38.757Z,12.53
2019-05-11T07:50:09.189Z,12.40
2019-05-11T07:52:38.626Z,12.48
2019-05-11T07:55:08.832Z,12.39
2019-05-11T07:57:39.290Z,12.34
2019-05-11T08:00:09.186Z,12.38
2019-05-11T08:02:39.051Z,12.53
2019-05-11T08:05:08.967Z,12.51
2019-05-11T08:07:38.497Z,12.59
2019-05-11T08:10:08.494Z,12.71
2019-05-11T08:12:39.200Z,12.97
2019-05-11T08:15:13.183Z,13.15
2019-05-11T08:17:40.411Z,13.51
2019-05-11T08:20:10.756Z,13.71
2019-05-11T08:22:40.181Z,13.85
2019-05-11T08:25:09.583Z,14.18
2019-05-11T08:27:39.023Z,14.33
2019-05-11T08:30:12.493Z,14.46
2019-05-11T08:32:42.348Z,14.61
2019-05-11T08:35:11.817Z,14.96
2019-05-11T08:37:41.230Z,15.65
2019-05-11T08:40:10.895Z,16.05
2019-05-11T08:42:40.312Z,15.73
2019-05-11T08:45:20.494Z,15.24
2019-05-11T08:47:41.085Z,15.04
2019-05-11T08:50:10.717Z,14.89
2019-05-11T08:52:40.143Z,14.88
2019-05-11T08:55:09.979Z,15.01
2019-05-11T08:57:39.440Z,15.25
2019-05-11T09:00:13.729Z,15.31
2019-05-11T09:02:46.685Z,15.36
2019-05-11T09:05:14.953Z,15.27
2019-05-11T09:07:44.455Z,15.40
2019-05-11T09:10:14.298Z,15.45
2019-05-11T09:12:43.711Z,15.42
2019-05-11T09:15:28.138Z,15.64
2019-05-11T09:17:44.724Z,15.76
2019-05-11T09:20:14.668Z,15.87
2019-05-11T09:22:44.091Z,15.87
2019-05-11T09:27:49.814Z,15.59
2019-05-11T09:30:19.559Z,15.58
2019-05-11T09:32:48.980Z,15.53
2019-05-11T09:35:19.060Z,15.48
2019-05-11T09:37:48.720Z,15.56
2019-05-11T09:40:18.646Z,15.55
2019-05-11T09:42:48.176Z,15.52
2019-05-11T09:45:18.747Z,15.61
2019-05-11T09:47:48.485Z,15.85
2019-05-11T09:50:18.194Z,15.95
2019-05-11T09:52:48.980Z,15.90
2019-05-11T09:55:19.141Z,15.89
2019-05-11T09:57:48.970Z,15.88
2019-05-11T10:00:19.196Z,15.96
2019-05-11T10:02:48.986Z,16.02
2019-05-11T10:05:22.073Z,16.03
2019-05-11T10:07:53.068Z,16.29
2019-05-11T10:10:22.481Z,16.31
2019-05-11T10:12:52.951Z,16.42
2019-05-11T10:15:22.471Z,16.30
2019-05-11T10:17:51.860Z,16.07
2019-05-11T10:20:21.343Z,16.02
2019-05-11T10:22:50.746Z,15.92
2019-05-11T10:25:20.156Z,15.83
2019-05-11T10:27:49.547Z,15.78
2019-05-11T10:30:19.312Z,15.79
2019-05-11T10:32:49.076Z,15.90
2019-05-11T10:35:18.658Z,15.89
2019-05-11T10:37:48.073Z,15.81
2019-05-11T10:40:19.030Z,15.78
2019-05-11T10:42:48.660Z,15.81
2019-05-11T10:45:18.290Z,15.95
2019-05-11T10:47:49.002Z,16.01
2019-05-11T10:50:18.988Z,16.07
2019-05-11T10:52:48.655Z,16.20
2019-05-11T10:55:19.406Z,16.05
2019-05-11T10:57:49.069Z,16.13
2019-05-11T11:00:19.423Z,16.31
2019-05-11T11:02:48.835Z,16.31
2019-05-11T11:05:18.913Z,16.67
2019-05-11T11:07:48.672Z,17.07
2019-05-11T11:10:18.443Z,17.70
2019-05-11T11:12:49.016Z,17.30
2019-05-11T11:15:18.899Z,17.17
2019-05-11T11:17:48.682Z,16.47
2019-05-11T11:20:18.758Z,16.36
2019-05-11T11:22:48.533Z,16.04
2019-05-11T11:25:18.396Z,15.83
2019-05-11T11:27:48.736Z,15.56
2019-05-11T11:30:18.845Z,15.65
2019-05-11T11:32:48.478Z,15.73
2019-05-11T11:35:18.708Z,15.69
2019-05-11T11:37:48.346Z,15.62
2019-05-11T11:40:18.360Z,15.67
2019-05-11T11:42:48.031Z,15.50
2019-05-11T11:45:18.431Z,15.16
2019-05-11T11:47:49.355Z,14.92
2019-05-11T11:50:19.069Z,14.79
2019-05-11T11:52:48.561Z,14.82
2019-05-11T11:55:18.773Z,14.74
2019-05-11T11:57:50.313Z,14.53
2019-05-11T12:00:20.209Z,14.18
2019-05-11T12:02:49.790Z,14.11
2019-05-11T12:05:19.212Z,13.86
2019-05-11T12:07:49.196Z,13.58
2019-05-11T12:10:19.440Z,13.44
2019-05-11T12:12:48.857Z,13.27
2019-05-11T12:15:18.444Z,13.09
2019-05-11T12:17:48.395Z,12.73
2019-05-11T12:20:18.375Z,12.77
2019-05-11T12:22:47.890Z,12.72
2019-05-11T12:25:18.609Z,12.51
2019-05-11T12:27:49.068Z,12.59
2019-05-11T12:30:18.960Z,12.49
2019-05-11T12:32:51.164Z,12.50
2019-05-11T12:35:20.718Z,12.72
2019-05-11T12:37:50.117Z,12.78
2019-05-11T12:40:20.071Z,12.71
2019-05-11T12:42:49.479Z,12.94
2019-05-11T12:45:19.144Z,13.26
2019-05-11T12:47:48.715Z,13.72
2019-05-11T12:50:20.172Z,14.24
2019-05-11T12:52:49.574Z,14.39
2019-05-11T12:55:19.568Z,14.42
2019-05-11T12:57:48.994Z,14.34
2019-05-11T13:00:18.651Z,14.03
2019-05-11T13:02:48.637Z,13.86
2019-05-11T13:05:18.315Z,13.96
2019-05-11T13:07:48.303Z,13.71
2019-05-11T13:10:18.069Z,13.93
2019-05-11T13:12:49.371Z,13.85
2019-05-11T13:15:19.001Z,13.81
2019-05-11T13:17:49.184Z,13.76
2019-05-11T13:20:18.854Z,13.63
2019-05-11T13:22:49.055Z,13.65
2019-05-11T13:25:18.531Z,13.45
2019-05-11T13:27:49.232Z,13.39
2019-05-11T13:30:18.898Z,13.36
2019-05-11T13:32:49.021Z,13.30
2019-05-11T13:35:18.702Z,13.27
2019-05-11T13:37:48.229Z,13.11
2019-05-11T13:40:18.648Z,13.08
2019-05-11T13:42:48.998Z,13.07
2019-05-11T13:45:18.707Z,13.16
2019-05-11T13:47:55.204Z,12.79
2019-05-11T13:50:19.306Z,12.92
2019-05-11T13:52:48.721Z,12.77
2019-05-11T13:55:18.393Z,12.67
2019-05-11T13:57:48.619Z,12.44
2019-05-11T14:00:18.348Z,12.45
2019-05-11T14:02:48.674Z,12.09
2019-05-11T14:05:18.332Z,12.07
2019-05-11T14:07:48.303Z,12.03
2019-05-11T14:10:18.396Z,12.05
2019-05-11T14:12:48.038Z,12.10
2019-05-11T14:15:18.863Z,11.91
2019-05-11T14:17:48.895Z,11.82
2019-05-11T14:20:19.848Z,11.76
2019-05-11T14:22:49.242Z,12.02
2019-05-11T14:25:18.945Z,12.01
2019-05-11T14:27:48.422Z,12.11
2019-05-11T14:30:19.077Z,11.89
2019-05-11T14:32:48.857Z,11.88
2019-05-11T14:35:19.016Z,11.82
2019-05-11T14:37:48.836Z,11.70
2019-05-11T14:40:18.313Z,11.74
2019-05-11T14:42:48.975Z,11.81
2019-05-11T14:45:18.983Z,11.82
2019-05-11T14:47:48.561Z,11.72
2019-05-11T14:50:18.862Z,11.84
2019-05-11T14:52:49.133Z,11.89
2019-05-11T14:55:18.927Z,11.85
2019-05-11T14:57:48.701Z,11.93
2019-05-11T15:00:18.846Z,12.02
2019-05-11T15:02:49.482Z,11.87
2019-05-11T15:05:20.997Z,12.06
2019-05-11T15:07:52.661Z,12.15
2019-05-11T15:10:21.654Z,12.29
2019-05-11T15:12:51.089Z,12.29
2019-05-11T15:15:20.723Z,12.26
2019-05-11T15:17:50.150Z,12.25
2019-05-11T15:20:19.877Z,12.24
2019-05-11T15:22:49.307Z,12.30
2019-05-11T15:25:19.613Z,12.11
2019-05-11T15:27:49.476Z,12.09
2019-05-11T15:30:20.298Z,12.19
2019-05-11T15:32:49.784Z,12.21
2019-05-11T15:35:19.259Z,12.22
2019-05-11T15:37:48.843Z,12.23
2019-05-11T15:40:19.362Z,12.23
2019-05-11T15:42:48.976Z,12.27
2019-05-11T15:45:19.283Z,12.27
2019-05-11T15:47:49.073Z,12.28
2019-05-11T15:50:19.431Z,12.33
2019-05-11T15:52:49.228Z,12.37
2019-05-11T15:55:20.179Z,12.49
2019-05-11T15:57:49.651Z,12.58
2019-05-11T16:00:19.602Z,12.75
2019-05-11T16:02:49.335Z,13.01
2019-05-11T16:05:20.263Z,13.12
2019-05-11T16:07:49.676Z,13.34
2019-05-11T16:10:19.371Z,13.61
2019-05-11T16:12:49.098Z,13.64
2019-05-11T16:15:19.630Z,13.83
2019-05-11T16:17:50.038Z,13.67
2019-05-11T16:20:19.863Z,13.60
2019-05-11T16:22:49.228Z,13.43
2019-05-11T16:25:19.785Z,13.39
2019-05-11T16:27:49.670Z,13.32
2019-05-11T16:30:21.672Z,13.17
2019-05-11T16:32:50.882Z,12.98
2019-05-11T16:35:20.592Z,12.89
2019-05-11T16:37:50.007Z,12.88
2019-05-11T16:40:20.949Z,12.94
2019-05-11T16:42:50.552Z,13.07
2019-05-11T16:45:23.556Z,13.20
2019-05-11T16:47:51.528Z,13.46
2019-05-11T16:50:20.934Z,13.51
2019-05-11T16:52:50.416Z,13.46
2019-05-11T16:55:19.833Z,13.49
2019-05-11T16:57:49.270Z,13.30
2019-05-11T17:00:19.008Z,13.03
2019-05-11T17:02:49.256Z,13.04
2019-05-11T17:05:26.645Z,12.88
2019-05-11T17:07:50.279Z,12.75
2019-05-11T17:10:24.030Z,12.70
2019-05-11T17:12:53.434Z,12.61
2019-05-11T17:15:22.854Z,12.63
2019-05-11T17:17:52.261Z,12.76
2019-05-11T17:20:21.750Z,12.80
2019-05-11T17:22:53.784Z,12.82
2019-05-11T17:25:22.252Z,12.84
2019-05-11T17:27:51.714Z,12.88
2019-05-11T17:30:21.611Z,12.85
2019-05-11T17:32:51.011Z,12.92
2019-05-11T17:35:20.525Z,12.97
2019-05-11T17:37:49.924Z,13.14
2019-05-11T17:40:23.383Z,13.07
2019-05-11T17:42:53.619Z,13.11
2019-05-11T17:45:21.745Z,13.22
2019-05-11T17:47:51.152Z,13.20
2019-05-11T17:50:20.614Z,13.17
2019-05-11T17:52:50.025Z,13.28
2019-05-11T17:55:19.437Z,13.38
2019-05-11T17:57:50.451Z,13.42
2019-05-11T18:00:20.448Z,13.41
2019-05-11T18:02:49.869Z,13.52
2019-05-11T18:05:19.417Z,13.49
2019-05-11T18:07:48.857Z,13.36
2019-05-11T18:10:18.729Z,13.28
2019-05-11T18:12:48.882Z,13.15
2019-05-11T18:15:19.227Z,12.98
2019-05-11T18:17:49.107Z,12.84
2019-05-11T18:20:22.017Z,12.67
2019-05-11T18:22:50.283Z,12.52
2019-05-11T18:25:19.701Z,12.39
2019-05-11T18:27:49.202Z,12.32
2019-05-11T18:30:18.764Z,12.19
2019-05-11T18:32:49.001Z,12.12
2019-05-11T18:35:19.594Z,12.04
2019-05-11T18:37:49.285Z,11.95
2019-05-11T18:40:19.110Z,11.86
2019-05-11T18:42:49.051Z,11.76
2019-05-11T18:45:19.123Z,11.70
2019-05-11T18:47:49.322Z,11.71
2019-05-11T18:50:29.855Z,11.72
2019-05-11T18:52:50.181Z,11.67
2019-05-11T18:55:19.615Z,11.55
2019-05-11T18:57:49.440Z,11.52
2019-05-11T19:00:19.560Z,11.45
2019-05-11T19:02:49.598Z,11.42
2019-05-11T19:05:19.238Z,11.42
2019-05-11T19:07:48.646Z,11.44
2019-05-11T19:10:18.302Z,11.33
2019-05-11T19:12:48.787Z,11.26
2019-05-11T19:15:19.349Z,11.26
2019-05-11T19:17:49.359Z,11.16
2019-05-11T19:20:20.509Z,11.10
2019-05-11T19:22:49.913Z,10.96
2019-05-11T19:25:19.335Z,10.83
2019-05-11T19:27:50.751Z,10.69
2019-05-11T19:30:20.230Z,10.60
2019-05-11T19:32:49.652Z,10.50
2019-05-11T19:35:21.102Z,10.37
2019-05-11T19:37:50.195Z,10.33
2019-05-11T19:40:19.698Z,10.24
2019-05-11T19:42:53.988Z,10.18
2019-05-11T19:45:23.896Z,10.23
2019-05-11T19:47:53.303Z,10.20
2019-05-11T19:50:22.741Z,10.18
2019-05-11T19:52:52.156Z,10.15
2019-05-11T19:55:21.599Z,10.17
2019-05-11T19:57:51.023Z,10.14
2019-05-11T20:00:20.784Z,10.10
2019-05-11T20:02:50.191Z,10.02
2019-05-11T20:05:19.630Z,9.93
2019-05-11T20:07:49.158Z,9.90
2019-05-11T20:10:19.168Z,9.84
2019-05-11T20:12:48.869Z,9.82
2019-05-11T20:15:19.059Z,9.83
2019-05-11T20:17:49.133Z,9.80
2019-05-11T20:20:18.986Z,9.75
2019-05-11T20:22:48.937Z,9.73
2019-05-11T20:25:19.310Z,9.74
2019-05-11T20:27:49.187Z,9.74
2019-05-11T20:30:19.283Z,9.63
2019-05-11T20:32:49.382Z,9.55
2019-05-11T20:35:19.036Z,9.49
2019-05-11T20:37:48.447Z,9.47
2019-05-11T20:40:18.430Z,9.45
2019-05-11T20:42:48.678Z,9.47
2019-05-11T20:45:19.008Z,9.48
2019-05-11T20:47:49.010Z,9.56
2019-05-11T20:50:18.878Z,9.63
2019-05-11T20:52:48.753Z,9.69
2019-05-11T20:55:18.597Z,9.74
2019-05-11T20:57:48.688Z,9.74
2019-05-11T21:00:19.528Z,9.69
2019-05-11T21:02:49.253Z,9.64
2019-05-11T21:05:18.828Z,9.52
2019-05-11T21:07:48.342Z,9.40
2019-05-11T21:10:17.987Z,9.25
2019-05-11T21:12:47.410Z,9.21
2019-05-11T21:15:18.098Z,9.10
2019-05-11T21:17:50.216Z,9.04
2019-05-11T21:20:18.773Z,9.03
2019-05-11T21:22:48.844Z,8.99
2019-05-11T21:25:18.539Z,9.01
2019-05-11T21:27:48.709Z,8.92
2019-05-11T21:30:18.752Z,8.85
2019-05-11T21:32:48.292Z,8.76
2019-05-11T21:35:19.272Z,8.71
2019-05-11T21:37:48.977Z,8.73
2019-05-11T21:40:18.485Z,8.72
2019-05-11T21:42:47.912Z,8.68
2019-05-11T21:45:18.423Z,8.63
2019-05-11T21:47:48.983Z,8.71
2019-05-11T21:50:19.260Z,8.67
2019-05-11T21:52:48.841Z,8.62
2019-05-11T21:55:18.251Z,8.64
2019-05-11T21:57:49.854Z,8.61
2019-05-11T22:00:19.515Z,8.51
2019-05-11T22:02:48.999Z,8.44
2019-05-11T22:05:20.945Z,8.40
2019-05-11T22:07:49.557Z,8.34
2019-05-11T22:10:19.797Z,8.36
2019-05-11T22:12:49.233Z,8.33
2019-05-11T22:15:18.873Z,8.31
2019-05-11T22:17:48.294Z,8.30
2019-05-11T22:20:18.437Z,8.29
2019-05-11T22:22:48.002Z,8.30
2019-05-11T22:25:18.253Z,8.31
2019-05-11T22:27:48.748Z,8.31
2019-05-11T22:30:18.807Z,8.30
2019-05-11T22:32:48.260Z,8.31
2019-05-11T22:35:18.475Z,8.34
2019-05-11T22:37:49.099Z,8.36
2019-05-11T22:40:18.913Z,8.38
2019-05-11T22:42:48.336Z,8.33
2019-05-11T22:45:18.614Z,8.22
2019-05-11T22:47:48.340Z,8.16
2019-05-11T22:50:18.719Z,8.07
2019-05-11T22:52:48.578Z,8.01
2019-05-11T22:55:18.918Z,7.95
2019-05-11T22:57:48.795Z,7.94
2019-05-11T23:00:21.280Z,7.89
2019-05-11T23:02:50.681Z,7.85
2019-05-11T23:05:20.097Z,7.80
2019-05-11T23:07:49.501Z,7.79
2019-05-11T23:10:18.902Z,7.76
2019-05-11T23:12:49.898Z,7.67
2019-05-11T23:15:19.474Z,7.60
2019-05-11T23:17:48.878Z,7.61
2019-05-11T23:20:18.631Z,7.58
2019-05-11T23:22:57.018Z,7.60
2019-05-11T23:25:19.669Z,7.62
2019-05-11T23:27:49.195Z,7.59
2019-05-11T23:30:20.110Z,7.60
2019-05-11T23:32:50.083Z,7.62
2019-05-11T23:35:19.524Z,7.65
2019-05-11T23:37:50.002Z,7.60
2019-05-11T23:40:20.548Z,7.61
2019-05-11T23:42:50.015Z,7.60
2019-05-11T23:45:19.562Z,7.63
2019-05-11T23:47:49.268Z,7.62
2019-05-11T23:50:19.455Z,7.64
2019-05-11T23:53:04.181Z,7.66
2019-05-11T23:55:20.514Z,7.58
2019-05-11T23:57:49.950Z,7.50
